createdAt,value
2018-07-04T00:01:46.969Z,55.20
2018-07-04T00:04:25.958Z,55.50
2018-07-04T00:07:04.773Z,54.90
2018-07-04T00:09:43.627Z,54.70
2018-07-04T00:12:22.488Z,54.80
2018-07-04T00:15:01.369Z,54.90
2018-07-04T00:17:40.731Z,54.90
2018-07-04T00:20:23.444Z,54.90
2018-07-04T00:23:02.359Z,55.00
2018-07-04T00:25:41.241Z,55.20
2018-07-04T00:28:20.037Z,55.30
2018-07-04T00:30:58.844Z,55.00
2018-07-04T00:33:37.820Z,55.00
2018-07-04T00:36:16.725Z,54.90
2018-07-04T00:38:55.727Z,54.60
2018-07-04T00:41:34.652Z,54.80
2018-07-04T00:44:13.469Z,54.70
2018-07-04T00:46:52.232Z,54.80
2018-07-04T00:49:31.156Z,55.10
2018-07-04T00:52:10.103Z,55.20
2018-07-04T00:54:48.911Z,55.30
2018-07-04T00:57:27.704Z,55.10
2018-07-04T01:00:06.504Z,55.20
2018-07-04T01:02:45.248Z,55.30
2018-07-04T01:05:24.203Z,55.30
2018-07-04T01:08:03.085Z,55.80
2018-07-04T01:10:41.946Z,55.50
2018-07-04T01:13:20.798Z,55.60
2018-07-04T01:15:59.677Z,55.80
2018-07-04T01:18:38.685Z,55.90
2018-07-04T01:21:17.704Z,55.80
2018-07-04T01:23:56.696Z,55.80
2018-07-04T01:26:35.467Z,56.10
2018-07-04T01:29:14.580Z,56.10
2018-07-04T01:31:53.687Z,56.30
2018-07-04T01:34:32.691Z,56.20
2018-07-04T01:37:11.632Z,56.50
2018-07-04T01:39:50.420Z,56.50
2018-07-04T01:42:29.260Z,56.60
2018-07-04T01:45:08.124Z,56.20
2018-07-04T01:47:46.975Z,56.50
2018-07-04T01:50:28.840Z,56.50
2018-07-04T01:53:07.776Z,56.60
2018-07-04T01:55:46.552Z,56.70
2018-07-04T01:58:25.401Z,56.80
2018-07-04T02:01:04.190Z,56.90
2018-07-04T02:03:43.144Z,56.80
2018-07-04T02:06:21.908Z,57.10
2018-07-04T02:09:00.691Z,57.10
2018-07-04T02:11:39.488Z,57.30
2018-07-04T02:14:18.280Z,57.40
2018-07-04T02:16:57.032Z,57.90
2018-07-04T02:19:35.868Z,57.90
2018-07-04T02:22:14.804Z,58.50
2018-07-04T02:24:53.706Z,58.70
2018-07-04T02:27:32.529Z,58.60
2018-07-04T02:30:11.405Z,58.70
2018-07-04T02:32:50.172Z,59.30
2018-07-04T02:35:28.993Z,59.20
2018-07-04T02:38:07.780Z,59.30
2018-07-04T02:40:46.612Z,59.50
2018-07-04T02:43:25.343Z,59.40
2018-07-04T02:46:04.265Z,59.40
2018-07-04T02:48:43.128Z,59.30
2018-07-04T02:51:21.966Z,59.60
2018-07-04T02:54:00.767Z,59.60
2018-07-04T02:56:39.697Z,59.60
2018-07-04T02:59:18.596Z,59.80
2018-07-04T03:01:57.577Z,60.10
2018-07-04T03:04:36.460Z,59.80
2018-07-04T03:07:15.392Z,59.90
2018-07-04T03:09:54.357Z,60.00
2018-07-04T03:12:33.255Z,61.00
2018-07-04T03:15:12.073Z,60.80
2018-07-04T03:17:51.003Z,61.10
2018-07-04T03:20:29.928Z,61.20
2018-07-04T03:23:08.760Z,61.20
2018-07-04T03:25:47.605Z,61.40
2018-07-04T03:28:26.412Z,61.50
2018-07-04T03:31:05.497Z,61.80
2018-07-04T03:33:44.433Z,62.20
2018-07-04T03:36:23.204Z,62.30
2018-07-04T03:39:02.052Z,62.00
2018-07-04T03:41:40.826Z,61.80
2018-07-04T03:44:19.612Z,62.00
2018-07-04T03:46:58.431Z,62.30
2018-07-04T03:49:37.268Z,62.40
2018-07-04T03:52:16.016Z,62.70
2018-07-04T03:54:54.807Z,62.90
2018-07-04T03:57:33.635Z,62.90
2018-07-04T04:00:12.453Z,63.00
2018-07-04T04:02:51.220Z,63.00
2018-07-04T04:05:29.935Z,63.20
2018-07-04T04:08:08.790Z,63.40
2018-07-04T04:10:47.553Z,63.40
2018-07-04T04:13:26.503Z,63.30
2018-07-04T04:16:05.383Z,63.50
2018-07-04T04:18:44.324Z,63.50
2018-07-04T04:21:23.232Z,63.40
2018-07-04T04:24:02.127Z,63.90
2018-07-04T04:26:41.012Z,63.80
2018-07-04T04:29:19.912Z,63.80
2018-07-04T04:31:58.798Z,63.80
2018-07-04T04:34:37.732Z,64.60
2018-07-04T04:37:16.606Z,63.90
2018-07-04T04:39:55.571Z,64.60
2018-07-04T04:42:34.340Z,63.80
2018-07-04T04:45:13.314Z,64.50
2018-07-04T04:47:52.194Z,65.10
2018-07-04T04:50:31.107Z,65.60
2018-07-04T04:53:10.003Z,64.60
2018-07-04T04:55:48.972Z,65.30
2018-07-04T04:58:27.720Z,66.80
2018-07-04T05:01:06.604Z,65.70
2018-07-04T05:03:45.491Z,65.90
2018-07-04T05:06:24.476Z,64.50
2018-07-04T05:09:03.899Z,63.40
2018-07-04T05:11:42.694Z,62.90
2018-07-04T05:14:21.528Z,62.40
2018-07-04T05:17:00.357Z,62.00
2018-07-04T05:19:39.128Z,62.40
2018-07-04T05:22:18.063Z,62.00
2018-07-04T05:24:56.927Z,62.60
2018-07-04T05:27:35.894Z,62.80
2018-07-04T05:30:14.709Z,62.50
2018-07-04T05:32:53.515Z,62.90
2018-07-04T05:35:32.404Z,62.80
2018-07-04T05:38:11.303Z,61.60
2018-07-04T05:40:50.271Z,62.10
2018-07-04T05:43:29.053Z,61.90
2018-07-04T05:46:07.831Z,61.50
2018-07-04T05:48:46.583Z,62.00
2018-07-04T05:51:25.377Z,62.30
2018-07-04T05:54:04.324Z,63.00
2018-07-04T05:56:43.212Z,62.10
2018-07-04T05:59:22.104Z,62.80
2018-07-04T06:02:01.112Z,63.30
2018-07-04T06:04:40.085Z,62.90
2018-07-04T06:07:18.999Z,63.10
2018-07-04T06:09:57.951Z,62.40
2018-07-04T06:12:36.860Z,62.40
2018-07-04T06:15:15.588Z,61.80
2018-07-04T06:17:54.528Z,62.10
2018-07-04T06:20:33.339Z,62.00
2018-07-04T06:23:12.239Z,62.40
2018-07-04T06:25:51.047Z,62.20
2018-07-04T06:28:30.102Z,62.00
2018-07-04T06:31:09.091Z,61.80
2018-07-04T06:33:47.988Z,60.40
2018-07-04T06:36:26.893Z,61.80
2018-07-04T06:38:53.424Z,61.20
2018-07-04T06:41:19.945Z,60.50
2018-07-04T06:43:46.488Z,61.30
2018-07-04T06:46:13.000Z,60.80
2018-07-04T06:48:39.520Z,60.50
2018-07-04T06:51:06.027Z,61.40
2018-07-04T06:53:32.576Z,61.20
2018-07-04T06:55:59.081Z,60.30
2018-07-04T06:58:25.605Z,60.00
2018-07-04T07:00:52.164Z,59.30
2018-07-04T07:03:30.992Z,59.90
2018-07-04T07:06:09.875Z,58.40
2018-07-04T07:08:48.819Z,58.10
2018-07-04T07:11:27.693Z,56.60
2018-07-04T07:14:06.624Z,58.00
2018-07-04T07:16:45.496Z,58.70
2018-07-04T07:19:24.348Z,59.60
2018-07-04T07:22:03.328Z,57.90
2018-07-04T07:24:42.220Z,57.50
2018-07-04T07:27:21.134Z,58.50
2018-07-04T07:30:00.015Z,60.00
2018-07-04T07:32:38.984Z,58.30
2018-07-04T07:35:17.868Z,58.30
2018-07-04T07:37:56.765Z,57.40
2018-07-04T07:40:35.661Z,58.10
2018-07-04T07:43:14.660Z,57.20
2018-07-04T07:45:53.572Z,57.50
2018-07-04T07:48:32.412Z,57.40
2018-07-04T07:51:11.560Z,57.50
2018-07-04T07:53:50.312Z,56.70
2018-07-04T07:56:29.239Z,57.10
2018-07-04T07:59:08.185Z,57.40
2018-07-04T08:01:47.290Z,56.90
2018-07-04T08:04:26.228Z,55.70
2018-07-04T08:07:05.081Z,56.90
2018-07-04T08:09:44.096Z,56.40
2018-07-04T08:12:22.940Z,56.20
2018-07-04T08:15:01.745Z,55.80
2018-07-04T08:17:40.540Z,56.80
2018-07-04T08:20:19.480Z,57.80
2018-07-04T08:22:58.396Z,56.30
2018-07-04T08:25:37.240Z,55.30
2018-07-04T08:28:16.088Z,55.10
2018-07-04T08:30:54.851Z,53.70
2018-07-04T08:33:33.792Z,54.90
2018-07-04T08:36:12.685Z,54.90
2018-07-04T08:38:51.631Z,54.90
2018-07-04T08:41:30.420Z,55.10
2018-07-04T08:44:09.277Z,53.40
2018-07-04T08:46:48.062Z,52.70
2018-07-04T08:49:26.856Z,52.70
2018-07-04T08:52:05.836Z,51.90
2018-07-04T08:54:44.654Z,53.70
2018-07-04T08:57:23.591Z,54.10
2018-07-04T09:00:02.401Z,53.30
2018-07-04T09:02:41.263Z,53.90
2018-07-04T09:05:20.134Z,53.30
2018-07-04T09:07:58.973Z,53.90
2018-07-04T09:10:37.772Z,51.60
2018-07-04T09:13:16.599Z,51.00
2018-07-04T09:15:55.769Z,50.90
2018-07-04T09:18:34.609Z,52.00
2018-07-04T09:21:13.452Z,50.30
2018-07-04T09:23:52.244Z,49.30
2018-07-04T09:26:31.064Z,48.90
2018-07-04T09:29:09.935Z,49.20
2018-07-04T09:31:48.815Z,50.90
2018-07-04T09:34:28.483Z,50.10
2018-07-04T09:37:07.425Z,48.00
2018-07-04T09:39:46.328Z,48.60
2018-07-04T09:42:25.260Z,48.60
2018-07-04T09:45:04.226Z,49.30
2018-07-04T09:47:43.390Z,50.20
2018-07-04T09:50:22.356Z,52.20
2018-07-04T09:53:01.250Z,52.60
2018-07-04T09:55:40.216Z,54.30
2018-07-04T09:58:19.087Z,56.50
2018-07-04T10:01:03.608Z,55.80
2018-07-04T10:03:42.509Z,60.40
2018-07-04T10:06:21.403Z,61.20
2018-07-04T10:09:00.375Z,58.40
2018-07-04T10:11:39.277Z,61.40
2018-07-04T10:14:18.044Z,63.80
2018-07-04T10:16:56.879Z,71.60
2018-07-04T10:19:35.824Z,75.70
2018-07-04T10:22:14.641Z,78.30
2018-07-04T10:24:53.484Z,79.20
2018-07-04T10:27:32.422Z,82.90
2018-07-04T10:30:11.370Z,84.60
2018-07-04T10:32:50.223Z,85.10
2018-07-04T10:35:29.227Z,84.70
2018-07-04T10:38:07.967Z,86.10
2018-07-04T10:40:47.390Z,87.10
2018-07-04T10:43:26.297Z,86.20
2018-07-04T10:46:05.081Z,86.70
2018-07-04T10:48:43.848Z,89.30
2018-07-04T10:51:22.642Z,90.60
2018-07-04T10:54:01.436Z,88.90
2018-07-04T10:56:40.205Z,83.10
2018-07-04T10:59:18.997Z,84.70
2018-07-04T11:01:57.781Z,89.50
2018-07-04T11:04:36.651Z,90.50
2018-07-04T11:07:15.457Z,91.70
2018-07-04T11:09:54.328Z,91.70
2018-07-04T11:12:33.164Z,92.20
2018-07-04T11:15:12.096Z,92.90
2018-07-04T11:17:51.042Z,91.90
2018-07-04T11:20:29.845Z,91.80
2018-07-04T11:23:08.636Z,92.10
2018-07-04T11:25:47.515Z,92.20
2018-07-04T11:28:26.460Z,92.00
2018-07-04T11:31:05.239Z,91.80
2018-07-04T11:33:44.165Z,91.50
2018-07-04T11:36:23.139Z,91.50
2018-07-04T11:39:02.171Z,91.30
2018-07-04T11:41:40.913Z,91.20
2018-07-04T11:44:19.898Z,91.10
2018-07-04T11:46:46.429Z,91.10
2018-07-04T11:49:12.961Z,91.00
2018-07-04T11:51:39.496Z,91.40
2018-07-04T11:54:06.051Z,91.50
2018-07-04T11:56:32.586Z,92.80
2018-07-04T11:58:59.152Z,92.70
2018-07-04T12:01:25.676Z,93.40
2018-07-04T12:04:04.502Z,94.90
2018-07-04T12:06:43.420Z,95.00
2018-07-04T12:09:09.984Z,95.00
2018-07-04T12:11:36.542Z,95.80
2018-07-04T12:14:03.072Z,96.30
2018-07-04T12:16:29.668Z,95.90
2018-07-04T12:18:56.206Z,96.10
2018-07-04T12:21:22.769Z,96.50
2018-07-04T12:23:49.297Z,96.90
2018-07-04T12:26:15.852Z,96.60
2018-07-04T12:28:42.380Z,96.70
2018-07-04T12:31:08.943Z,95.80
2018-07-04T12:33:35.477Z,95.80
2018-07-04T12:36:02.048Z,95.20
2018-07-04T12:38:28.627Z,94.80
2018-07-04T12:40:55.141Z,94.10
2018-07-04T12:43:21.736Z,93.70
2018-07-04T12:45:48.282Z,93.70
2018-07-04T12:48:14.844Z,93.40
2018-07-04T12:50:41.436Z,92.70
2018-07-04T12:53:07.997Z,92.00
2018-07-04T12:55:46.937Z,92.30
2018-07-04T12:58:25.862Z,92.80
2018-07-04T13:01:04.861Z,92.60
2018-07-04T13:03:43.664Z,92.70
2018-07-04T13:06:22.439Z,92.00
2018-07-04T13:09:01.241Z,92.20
2018-07-04T13:11:40.015Z,92.10
2018-07-04T13:14:18.924Z,92.30
2018-07-04T13:16:57.795Z,92.40
2018-07-04T13:19:36.634Z,91.60
2018-07-04T13:22:15.507Z,90.70
2018-07-04T13:24:54.504Z,85.70
2018-07-04T13:27:33.465Z,85.30
2018-07-04T13:30:12.456Z,83.20
2018-07-04T13:32:51.217Z,84.10
2018-07-04T13:35:30.022Z,83.50
2018-07-04T13:38:08.893Z,79.30
2018-07-04T13:40:47.709Z,81.70
2018-07-04T13:43:26.657Z,79.30
2018-07-04T13:46:05.633Z,76.70
2018-07-04T13:48:44.417Z,74.30
2018-07-04T13:51:23.242Z,75.30
2018-07-04T13:54:02.104Z,77.10
2018-07-04T13:56:40.961Z,80.40
2018-07-04T13:59:19.680Z,76.40
2018-07-04T14:01:58.599Z,70.70
2018-07-04T14:04:37.382Z,69.00
2018-07-04T14:07:16.221Z,70.00
2018-07-04T14:09:55.131Z,67.50
2018-07-04T14:12:33.924Z,66.00
2018-07-04T14:15:12.730Z,69.70
2018-07-04T14:17:51.547Z,71.00
2018-07-04T14:20:30.302Z,68.50
2018-07-04T14:23:09.276Z,70.50
2018-07-04T14:25:48.136Z,68.10
2018-07-04T14:28:26.952Z,69.20
2018-07-04T14:31:05.843Z,70.60
2018-07-04T14:33:44.644Z,72.00
2018-07-04T14:36:23.448Z,71.40
2018-07-04T14:39:02.443Z,70.80
2018-07-04T14:41:41.297Z,70.50
2018-07-04T14:44:20.139Z,70.80
2018-07-04T14:46:58.968Z,71.20
2018-07-04T14:49:37.871Z,74.30
2018-07-04T14:52:16.824Z,75.80
2018-07-04T14:54:55.538Z,76.80
2018-07-04T14:57:34.361Z,79.50
2018-07-04T15:00:13.186Z,80.10
2018-07-04T15:02:52.021Z,81.90
2018-07-04T15:05:30.952Z,79.10
2018-07-04T15:08:09.784Z,78.20
2018-07-04T15:10:48.609Z,82.50
2018-07-04T15:13:27.529Z,86.20
2018-07-04T15:16:06.355Z,88.20
2018-07-04T15:18:45.143Z,90.00
2018-07-04T15:21:23.964Z,91.70
2018-07-04T15:24:02.747Z,91.00
